createdAt,value
2022-12-09T00:01:41.863Z,-0.70
2022-12-09T00:04:10.751Z,-0.70
2022-12-09T00:06:39.727Z,-0.70
2022-12-09T00:09:15.182Z,-0.70
2022-12-09T00:11:44.165Z,-0.70
2022-12-09T00:14:14.792Z,-0.70
2022-12-09T00:16:43.652Z,-0.80
2022-12-09T00:19:18.315Z,-0.80
2022-12-09T00:21:46.922Z,-0.80
2022-12-09T00:24:17.088Z,-0.80
2022-12-09T00:26:45.695Z,-0.70
2022-12-09T00:29:14.452Z,-0.70
2022-12-09T00:31:43.895Z,-0.60
2022-12-09T00:34:14.218Z,-0.70
2022-12-09T00:36:42.838Z,-0.70
2022-12-09T00:39:13.402Z,-0.80
2022-12-09T00:41:43.516Z,-0.80
2022-12-09T00:44:12.925Z,-0.80
2022-12-09T00:46:41.377Z,-0.60
2022-12-09T00:49:17.166Z,-0.90
2022-12-09T00:51:45.909Z,-0.90
2022-12-09T00:54:15.024Z,-0.90
2022-12-09T00:56:45.278Z,-0.90
2022-12-09T00:59:13.978Z,-1.00
2022-12-09T01:01:42.820Z,-1.00
2022-12-09T01:04:12.340Z,-1.00
2022-12-09T01:06:41.847Z,-1.10
2022-12-09T01:09:10.569Z,-1.10
2022-12-09T01:11:39.021Z,-1.00
2022-12-09T01:14:09.828Z,-1.10
2022-12-09T01:16:41.428Z,-1.10
2022-12-09T01:19:14.740Z,-1.10
2022-12-09T01:21:43.229Z,-0.60
2022-12-09T01:24:13.121Z,-1.20
2022-12-09T01:26:41.673Z,-1.30
2022-12-09T01:29:11.487Z,-1.30
2022-12-09T01:31:40.021Z,-1.30
2022-12-09T01:34:14.400Z,-1.30
2022-12-09T01:36:42.854Z,-1.30
2022-12-09T01:39:12.595Z,-1.30
2022-12-09T01:41:41.148Z,-1.30
2022-12-09T01:44:22.588Z,-1.30
2022-12-09T01:46:55.854Z,-1.20
2022-12-09T01:49:28.843Z,-1.10
2022-12-09T01:52:04.081Z,-1.00
2022-12-09T01:54:34.663Z,-1.00
2022-12-09T01:57:04.192Z,-1.00
2022-12-09T01:59:36.325Z,-1.00
2022-12-09T02:02:09.302Z,-1.00
2022-12-09T02:04:41.866Z,-1.00
2022-12-09T02:07:12.882Z,-1.00
2022-12-09T02:09:42.065Z,-1.00
2022-12-09T02:12:14.882Z,-1.00
2022-12-09T02:14:55.754Z,-1.00
2022-12-09T02:17:31.446Z,-0.90
2022-12-09T02:20:08.350Z,-0.80
2022-12-09T02:22:43.426Z,-0.80
2022-12-09T02:25:17.950Z,-0.20
2022-12-09T02:27:51.071Z,-0.70
2022-12-09T02:30:23.888Z,-0.60
2022-12-09T02:33:14.054Z,-0.60
2022-12-09T02:35:50.562Z,-0.60
2022-12-09T02:38:28.819Z,-0.60
2022-12-09T02:41:03.399Z,-0.50
2022-12-09T02:43:44.998Z,-0.50
2022-12-09T02:46:18.809Z,-0.50
2022-12-09T02:48:52.933Z,-0.20
2022-12-09T02:51:25.785Z,-0.40
2022-12-09T02:53:59.144Z,-0.40
2022-12-09T02:56:29.547Z,-0.30
2022-12-09T02:58:58.721Z,-0.30
2022-12-09T03:01:36.640Z,-0.10
2022-12-09T03:04:06.398Z,-0.40
2022-12-09T03:06:42.090Z,-0.20
2022-12-09T03:09:15.403Z,-0.20
2022-12-09T03:11:44.403Z,-0.20
2022-12-09T03:14:17.719Z,-0.20
2022-12-09T03:16:52.335Z,-0.20
2022-12-09T03:19:24.725Z,-0.20
2022-12-09T03:21:58.059Z,-0.20
2022-12-09T03:24:31.364Z,-0.20
2022-12-09T03:27:02.258Z,-0.20
2022-12-09T03:29:33.896Z,-0.20
2022-12-09T03:32:02.392Z,-0.20
2022-12-09T03:34:35.724Z,-0.20
2022-12-09T03:37:06.801Z,-0.30
2022-12-09T03:39:39.556Z,-0.30
2022-12-09T03:42:16.584Z,-0.30
2022-12-09T03:44:50.562Z,-0.40
2022-12-09T03:47:19.631Z,-0.40
2022-12-09T03:49:48.200Z,-0.50
2022-12-09T03:52:23.963Z,-0.50
2022-12-09T03:54:57.685Z,-0.50
2022-12-09T03:57:26.677Z,-0.50
2022-12-09T04:00:00.002Z,-0.40
2022-12-09T04:02:29.388Z,-0.50
2022-12-09T04:05:00.025Z,-0.50
2022-12-09T04:07:30.247Z,-0.60
2022-12-09T04:09:58.954Z,-0.60
2022-12-09T04:12:27.678Z,-0.60
2022-12-09T04:14:56.275Z,-0.60
2022-12-09T04:17:24.919Z,-0.60
2022-12-09T04:19:53.454Z,-0.60
2022-12-09T04:22:21.992Z,-0.50
2022-12-09T04:24:53.045Z,-0.50
2022-12-09T04:27:21.956Z,-0.50
2022-12-09T04:29:50.636Z,-0.40
2022-12-09T04:32:19.537Z,-0.40
2022-12-09T04:34:48.321Z,-0.40
2022-12-09T04:37:17.298Z,-0.40
2022-12-09T04:39:46.182Z,-0.30
2022-12-09T04:42:16.364Z,-0.30
2022-12-09T04:44:49.602Z,-0.30
2022-12-09T04:47:18.789Z,-0.30
2022-12-09T04:49:47.956Z,-0.30
2022-12-09T04:52:18.601Z,-0.30
2022-12-09T04:54:47.523Z,-0.30
2022-12-09T04:57:18.659Z,-0.40
2022-12-09T04:59:47.722Z,-0.40
2022-12-09T05:02:17.888Z,-0.30
2022-12-09T05:04:47.690Z,-0.30
2022-12-09T05:07:16.435Z,-0.10
2022-12-09T05:09:45.845Z,-0.30
2022-12-09T05:12:15.252Z,-0.20
2022-12-09T05:14:44.967Z,0.00
2022-12-09T05:17:13.158Z,-0.20
2022-12-09T05:19:41.561Z,-0.20
2022-12-09T05:22:11.150Z,-0.30
2022-12-09T05:24:41.223Z,-0.40
2022-12-09T05:27:09.836Z,-0.50
2022-12-09T05:29:38.475Z,-0.50
2022-12-09T05:32:09.250Z,-0.50
2022-12-09T05:34:38.340Z,-0.50
2022-12-09T05:37:07.666Z,-0.50
2022-12-09T05:39:36.293Z,-0.50
2022-12-09T05:42:05.377Z,-0.40
2022-12-09T05:44:33.912Z,-0.40
2022-12-09T05:47:03.737Z,-0.40
2022-12-09T05:49:33.988Z,-0.40
2022-12-09T05:52:02.654Z,-0.40
2022-12-09T05:54:32.379Z,-0.40
2022-12-09T05:57:01.441Z,-0.50
2022-12-09T05:59:31.174Z,-0.50
2022-12-09T06:02:02.507Z,-0.50
2022-12-09T06:04:36.962Z,-0.50
2022-12-09T06:09:47.558Z,-0.40
2022-12-09T06:12:16.960Z,-0.20
2022-12-09T06:14:45.426Z,-0.30
2022-12-09T06:17:14.281Z,-0.40
2022-12-09T06:19:44.540Z,-0.20
2022-12-09T06:22:13.961Z,-0.40
2022-12-09T06:24:42.300Z,-0.40
2022-12-09T06:27:11.098Z,-0.40
2022-12-09T06:29:39.598Z,-0.40
2022-12-09T06:32:08.481Z,-0.40
2022-12-09T06:34:37.231Z,-0.40
2022-12-09T06:37:06.943Z,-0.30
2022-12-09T06:39:41.309Z,-0.30
2022-12-09T06:42:11.350Z,-0.30
2022-12-09T06:44:40.387Z,-0.30
2022-12-09T06:47:16.141Z,-0.20
2022-12-09T06:49:45.009Z,-0.30
2022-12-09T06:52:17.225Z,-0.40
2022-12-09T06:54:45.651Z,-0.40
2022-12-09T06:57:13.935Z,-0.40
2022-12-09T06:59:42.870Z,-0.50
2022-12-09T07:02:12.770Z,-0.40
2022-12-09T07:04:41.445Z,-0.50
2022-12-09T07:07:12.222Z,-0.40
2022-12-09T07:09:44.281Z,-0.40
2022-12-09T07:12:13.044Z,-0.40
2022-12-09T07:14:41.923Z,-0.40
2022-12-09T07:17:15.909Z,-0.50
2022-12-09T07:19:44.850Z,-0.50
2022-12-09T07:22:13.997Z,-0.40
2022-12-09T07:24:44.617Z,-0.40
2022-12-09T07:27:19.625Z,-0.40
2022-12-09T07:29:48.706Z,-0.40
2022-12-09T07:32:17.243Z,-0.30
2022-12-09T07:34:45.810Z,-0.20
2022-12-09T07:37:14.638Z,-0.20
2022-12-09T07:39:44.836Z,-0.20
2022-12-09T07:42:13.835Z,-0.10
2022-12-09T07:44:42.469Z,-0.10
2022-12-09T07:47:10.954Z,-0.20
2022-12-09T07:49:39.754Z,-0.20
2022-12-09T07:52:08.375Z,-0.30
2022-12-09T07:54:36.591Z,-0.30
2022-12-09T07:57:06.263Z,-0.30
2022-12-09T07:59:34.920Z,-0.20
2022-12-09T08:02:06.620Z,-0.20
2022-12-09T08:04:37.638Z,-0.10
2022-12-09T08:07:07.409Z,-0.10
2022-12-09T08:09:37.999Z,-0.10
2022-12-09T08:12:09.319Z,-0.10
2022-12-09T08:14:37.945Z,-0.10
2022-12-09T08:17:06.544Z,-0.10
2022-12-09T08:19:35.453Z,0.00
2022-12-09T08:22:05.797Z,0.00
2022-12-09T08:24:34.795Z,-0.10
2022-12-09T08:27:03.517Z,-0.10
2022-12-09T08:29:33.680Z,0.00
2022-12-09T08:35:16.196Z,-0.20
2022-12-09T08:37:45.223Z,-0.20
2022-12-09T08:40:14.888Z,-0.10
2022-12-09T08:42:43.868Z,-0.10
2022-12-09T08:45:13.864Z,-0.10
2022-12-09T08:47:44.397Z,0.00
2022-12-09T08:50:13.221Z,0.00
2022-12-09T08:52:43.001Z,0.00
2022-12-09T08:55:11.588Z,0.10
2022-12-09T08:57:46.467Z,0.10
2022-12-09T09:00:18.944Z,0.10
2022-12-09T09:02:47.736Z,0.20
2022-12-09T09:05:16.557Z,0.30
2022-12-09T09:07:45.607Z,0.20
2022-12-09T09:10:14.618Z,0.20
2022-12-09T09:12:44.324Z,0.20
2022-12-09T09:15:14.851Z,0.20
2022-12-09T09:17:51.359Z,0.20
2022-12-09T09:20:20.919Z,0.20
2022-12-09T09:22:50.318Z,0.40
2022-12-09T09:25:19.292Z,0.20
2022-12-09T09:27:47.754Z,0.20
2022-12-09T09:30:17.789Z,0.20
2022-12-09T09:32:47.869Z,-0.10
2022-12-09T09:35:17.215Z,0.10
2022-12-09T09:37:45.869Z,0.10
2022-12-09T09:40:15.830Z,0.20
2022-12-09T09:42:51.135Z,0.20
2022-12-09T09:45:22.704Z,0.30
2022-12-09T09:47:56.722Z,0.30
2022-12-09T09:50:32.833Z,0.10
2022-12-09T09:53:12.816Z,0.40
2022-12-09T09:55:45.542Z,0.00
2022-12-09T09:58:19.107Z,0.10
2022-12-09T10:00:54.084Z,0.20
2022-12-09T10:03:38.308Z,0.20
2022-12-09T10:06:13.769Z,-0.40
2022-12-09T10:08:48.881Z,0.20
2022-12-09T10:11:22.128Z,0.30
2022-12-09T10:14:01.599Z,0.40
2022-12-09T10:16:36.793Z,0.50
2022-12-09T10:19:13.401Z,0.50
2022-12-09T10:21:44.621Z,0.60
2022-12-09T10:24:27.782Z,-0.10
2022-12-09T10:27:03.556Z,0.50
2022-12-09T10:29:49.216Z,0.50
2022-12-09T10:32:21.376Z,0.50
2022-12-09T10:34:51.595Z,0.50
2022-12-09T10:37:28.505Z,0.50
2022-12-09T10:40:04.355Z,0.50
2022-12-09T10:43:04.014Z,0.40
2022-12-09T10:46:07.792Z,0.40
2022-12-09T10:48:33.033Z,0.40
2022-12-09T10:51:06.309Z,0.40
2022-12-09T10:53:37.634Z,0.50
2022-12-09T10:56:07.840Z,0.50
2022-12-09T10:58:36.572Z,0.50
2022-12-09T11:01:11.085Z,0.50
2022-12-09T11:03:43.269Z,0.60
2022-12-09T11:06:24.680Z,0.70
2022-12-09T11:08:56.652Z,0.60
2022-12-09T11:11:42.090Z,0.70
2022-12-09T11:14:25.874Z,0.50
2022-12-09T11:16:58.116Z,0.70
2022-12-09T11:19:36.278Z,0.60
2022-12-09T11:22:22.492Z,0.40
2022-12-09T11:24:53.864Z,0.40
2022-12-09T11:27:31.117Z,0.30
2022-12-09T11:30:14.302Z,0.30
2022-12-09T11:32:59.798Z,0.30
2022-12-09T11:35:34.942Z,0.40
2022-12-09T11:38:19.151Z,0.40
2022-12-09T11:41:01.586Z,-0.10
2022-12-09T11:43:40.743Z,0.60
2022-12-09T11:46:22.561Z,0.80
2022-12-09T11:48:56.188Z,0.50
2022-12-09T11:51:27.738Z,0.50
2022-12-09T11:54:04.781Z,0.50
2022-12-09T11:56:34.479Z,0.50
2022-12-09T11:59:07.131Z,0.50
2022-12-09T12:01:49.316Z,0.50
2022-12-09T12:04:21.169Z,0.40
2022-12-09T12:06:53.377Z,0.50
2022-12-09T12:09:26.235Z,0.50
2022-12-09T12:12:02.312Z,0.50
2022-12-09T12:14:32.009Z,0.40
2022-12-09T12:17:13.568Z,0.40
2022-12-09T12:19:43.426Z,0.40
2022-12-09T12:22:41.166Z,0.40
2022-12-09T12:25:38.108Z,0.50
2022-12-09T12:28:34.808Z,0.60
2022-12-09T12:31:16.516Z,0.70
2022-12-09T12:34:22.992Z,0.60
2022-12-09T12:36:54.593Z,0.60
2022-12-09T12:39:41.245Z,0.40
2022-12-09T12:42:23.005Z,0.30
2022-12-09T12:45:16.809Z,0.30
2022-12-09T12:47:52.881Z,0.20
2022-12-09T12:50:47.975Z,0.20
2022-12-09T12:53:30.095Z,0.30
2022-12-09T12:56:03.865Z,1.20
2022-12-09T12:58:45.592Z,0.20
2022-12-09T13:01:25.566Z,0.10
2022-12-09T13:04:03.068Z,0.00
2022-12-09T13:06:40.900Z,0.00
2022-12-09T13:09:15.395Z,0.00
2022-12-09T13:11:57.825Z,0.00
2022-12-09T13:14:39.208Z,0.00
2022-12-09T13:17:13.002Z,0.00
2022-12-09T13:19:44.075Z,0.00
2022-12-09T13:22:23.394Z,0.00
2022-12-09T13:25:04.790Z,0.10
2022-12-09T13:27:40.236Z,0.10
2022-12-09T13:30:16.979Z,0.10
2022-12-09T13:33:16.778Z,0.20
2022-12-09T13:39:11.908Z,0.10
2022-12-09T13:42:03.290Z,-0.10
2022-12-09T13:44:40.347Z,-0.10
2022-12-09T13:47:27.318Z,-0.30
2022-12-09T13:50:00.203Z,-0.40
2022-12-09T13:52:45.722Z,-0.40
2022-12-09T13:55:34.643Z,-0.40
2022-12-09T13:58:41.203Z,-0.30
2022-12-09T14:01:19.997Z,-0.20
2022-12-09T14:03:57.643Z,-0.20
2022-12-09T14:06:30.879Z,-0.40
2022-12-09T14:09:04.135Z,-0.40
2022-12-09T14:11:48.486Z,-0.50
2022-12-09T14:14:53.254Z,-0.40
2022-12-09T14:18:02.629Z,-0.50
2022-12-09T14:20:40.372Z,-0.40
2022-12-09T14:23:19.528Z,-0.50
2022-12-09T14:25:57.741Z,0.00
2022-12-09T14:31:09.253Z,-0.60
2022-12-09T14:33:40.166Z,-0.60
2022-12-09T14:36:24.605Z,-0.60
2022-12-09T14:45:17.649Z,-0.80
2022-12-09T14:47:48.432Z,-0.90
2022-12-09T14:50:20.842Z,-0.90
2022-12-09T14:56:05.387Z,-0.90
2022-12-09T14:58:34.292Z,-0.90
2022-12-09T15:01:05.525Z,-0.80
2022-12-09T15:03:39.518Z,-0.80
2022-12-09T15:06:17.701Z,-0.80
2022-12-09T15:08:50.983Z,-0.70
2022-12-09T15:11:25.200Z,-0.90
2022-12-09T15:13:55.098Z,-0.90
2022-12-09T15:16:27.317Z,-0.90
2022-12-09T15:18:56.117Z,0.20
2022-12-09T15:21:31.292Z,-1.00
2022-12-09T15:24:00.744Z,-1.10
2022-12-09T15:26:32.248Z,-1.10
2022-12-09T15:29:05.589Z,-1.20
2022-12-09T15:31:48.933Z,-1.20
2022-12-09T15:34:26.288Z,-1.20
2022-12-09T15:36:58.277Z,-1.90
2022-12-09T15:39:32.422Z,-1.20
2022-12-09T15:42:10.359Z,-1.10
2022-12-09T15:44:43.887Z,-1.10
2022-12-09T15:47:17.850Z,-1.20
2022-12-09T15:49:51.075Z,-1.30
2022-12-09T15:52:23.413Z,-1.40
2022-12-09T15:54:52.499Z,-1.30
2022-12-09T15:57:23.655Z,-1.30
2022-12-09T15:59:57.050Z,-1.00
2022-12-09T16:02:29.698Z,-1.30
2022-12-09T16:05:01.573Z,-1.40
2022-12-09T16:07:32.957Z,-1.40
2022-12-09T16:10:04.402Z,-1.40
2022-12-09T16:12:35.306Z,-1.40
2022-12-09T16:15:05.017Z,-1.40
2022-12-09T16:17:37.787Z,-1.30
2022-12-09T16:20:32.847Z,-1.30
2022-12-09T16:23:01.675Z,-1.20
2022-12-09T16:25:35.900Z,-1.20
2022-12-09T16:28:07.477Z,-1.20
2022-12-09T16:30:46.961Z,-1.30
2022-12-09T16:33:18.659Z,-1.30
2022-12-09T16:35:58.920Z,-1.30
2022-12-09T16:38:28.322Z,-1.30
2022-12-09T16:41:11.243Z,-1.30
2022-12-09T16:43:56.112Z,-1.30
2022-12-09T16:46:40.389Z,-1.30
2022-12-09T16:49:08.743Z,-1.30
2022-12-09T16:51:39.280Z,-1.30
2022-12-09T16:54:20.190Z,-1.30
2022-12-09T16:56:51.386Z,-1.30
2022-12-09T16:59:21.329Z,-1.30
2022-12-09T17:01:50.007Z,-1.20
2022-12-09T17:04:23.181Z,-1.30
2022-12-09T17:06:51.661Z,-1.30
2022-12-09T17:09:20.279Z,-1.30
2022-12-09T17:11:49.422Z,-1.30
2022-12-09T17:14:20.326Z,-1.30
2022-12-09T17:16:48.805Z,-1.40
2022-12-09T17:19:17.290Z,-1.50
2022-12-09T17:21:45.569Z,-1.50
2022-12-09T17:24:17.055Z,-1.60
2022-12-09T17:26:45.543Z,-1.50
2022-12-09T17:29:13.834Z,-1.50
2022-12-09T17:31:43.822Z,-1.50
2022-12-09T17:34:12.215Z,-1.50
2022-12-09T17:36:42.573Z,-1.50
2022-12-09T17:39:18.047Z,-1.50
2022-12-09T17:41:46.419Z,-1.50
2022-12-09T17:44:16.159Z,-1.50
2022-12-09T17:46:45.984Z,-1.50
2022-12-09T17:49:14.327Z,-1.50
2022-12-09T17:51:42.734Z,-1.40
2022-12-09T17:54:11.153Z,-2.10
2022-12-09T17:56:39.560Z,-1.40
2022-12-09T17:59:11.552Z,-1.40
2022-12-09T18:01:43.841Z,-1.30
2022-12-09T18:04:14.551Z,-1.30
2022-12-09T18:06:44.672Z,-1.30
2022-12-09T18:09:15.626Z,-1.40
2022-12-09T18:11:44.640Z,-1.50
2022-12-09T18:14:13.209Z,-1.50
2022-12-09T18:16:41.721Z,-1.50
2022-12-09T18:19:15.525Z,-1.50
2022-12-09T18:21:43.836Z,-1.50
2022-12-09T18:24:12.399Z,-1.50
2022-12-09T18:26:42.300Z,-1.50
2022-12-09T18:29:11.713Z,-1.50
2022-12-09T18:31:40.199Z,-1.50
2022-12-09T18:34:08.710Z,-1.60
2022-12-09T18:36:38.758Z,-1.70
2022-12-09T18:39:07.711Z,-1.80
2022-12-09T18:41:37.047Z,-1.80
2022-12-09T18:44:07.863Z,-1.80
2022-12-09T18:46:39.099Z,-1.80
2022-12-09T18:49:09.316Z,-1.80
2022-12-09T18:51:39.837Z,-1.80
2022-12-09T18:54:09.101Z,-1.70
2022-12-09T18:56:37.954Z,-1.80
2022-12-09T18:59:08.704Z,-1.70
2022-12-09T19:01:40.404Z,-1.60
2022-12-09T19:04:14.123Z,-1.70
2022-12-09T19:06:46.817Z,-1.70
2022-12-09T19:09:17.819Z,-1.70
2022-12-09T19:11:47.471Z,-1.60
2022-12-09T19:14:17.313Z,-1.60
2022-12-09T19:16:46.551Z,-1.60
2022-12-09T19:19:16.665Z,-1.60
2022-12-09T19:21:46.857Z,-1.60
2022-12-09T19:24:16.936Z,-1.60
2022-12-09T19:26:53.243Z,-1.70
2022-12-09T19:29:21.890Z,-1.60
2022-12-09T19:31:52.021Z,-1.70
2022-12-09T19:34:22.641Z,-1.60
2022-12-09T19:36:54.751Z,-1.60
2022-12-09T19:39:25.347Z,-1.60
2022-12-09T19:41:54.699Z,-1.60
2022-12-09T19:44:44.259Z,-1.60
2022-12-09T19:47:11.772Z,-1.60
2022-12-09T19:49:41.418Z,-1.40
2022-12-09T19:52:12.579Z,-1.60
2022-12-09T19:54:41.168Z,-1.50
2022-12-09T19:57:09.599Z,-1.50
2022-12-09T19:59:37.880Z,-1.40
2022-12-09T20:02:08.051Z,-1.50
2022-12-09T20:04:51.849Z,-1.60
2022-12-09T20:07:22.058Z,-1.50
2022-12-09T20:09:50.825Z,-1.60
2022-12-09T20:12:19.218Z,-1.50
2022-12-09T20:14:47.459Z,-1.50
2022-12-09T20:17:16.762Z,-1.60
2022-12-09T20:19:45.053Z,-1.60
2022-12-09T20:22:13.328Z,-1.60
2022-12-09T20:24:44.394Z,-1.50
2022-12-09T20:27:12.702Z,-1.50
2022-12-09T20:29:41.998Z,-1.50
2022-12-09T20:32:10.670Z,-1.40
2022-12-09T20:34:39.413Z,-1.50
2022-12-09T20:37:10.723Z,-1.50
2022-12-09T20:39:39.818Z,-1.50
2022-12-09T20:42:09.531Z,-1.50
2022-12-09T20:44:42.928Z,-1.40
2022-12-09T20:47:11.101Z,-1.40
2022-12-09T20:49:39.335Z,-1.40
2022-12-09T20:52:07.521Z,-1.40
2022-12-09T20:54:35.837Z,-1.40
2022-12-09T20:57:04.218Z,-1.40
2022-12-09T20:59:34.031Z,-1.40
2022-12-09T21:02:03.228Z,-1.40
2022-12-09T21:04:31.423Z,-1.30
2022-12-09T21:06:59.779Z,-1.30
2022-12-09T21:09:29.362Z,-1.30
2022-12-09T21:11:58.041Z,-1.30
2022-12-09T21:14:32.471Z,-1.30
2022-12-09T21:19:52.494Z,-1.30
2022-12-09T21:22:20.646Z,-1.30
2022-12-09T21:24:49.075Z,-1.30
2022-12-09T21:27:17.253Z,-1.30
2022-12-09T21:29:45.558Z,-1.30
2022-12-09T21:32:19.617Z,-1.30
2022-12-09T21:34:48.054Z,-1.30
2022-12-09T21:37:17.741Z,-1.30
2022-12-09T21:39:45.875Z,-1.30
2022-12-09T21:42:14.060Z,-1.30
2022-12-09T21:44:42.362Z,-1.30
2022-12-09T21:47:10.627Z,-1.30
2022-12-09T21:49:38.898Z,-1.30
2022-12-09T21:52:07.249Z,-1.30
2022-12-09T21:54:38.042Z,-1.20
2022-12-09T21:57:06.269Z,-1.20
2022-12-09T21:59:34.551Z,-1.20
2022-12-09T22:02:03.156Z,-0.80
2022-12-09T22:04:31.451Z,-1.30
2022-12-09T22:06:59.564Z,-1.30
2022-12-09T22:09:28.776Z,-1.10
2022-12-09T22:11:58.481Z,-1.20
2022-12-09T22:14:26.796Z,-1.20
2022-12-09T22:16:54.990Z,-1.20
2022-12-09T22:19:24.226Z,-1.20
2022-12-09T22:21:52.431Z,-1.20
2022-12-09T22:24:20.724Z,-1.10
2022-12-09T22:26:48.938Z,-1.10
2022-12-09T22:29:19.044Z,-1.10
2022-12-09T22:31:47.543Z,-1.10
2022-12-09T22:34:17.241Z,-1.10
2022-12-09T22:36:46.341Z,-1.10
2022-12-09T22:39:16.618Z,-1.10
2022-12-09T22:41:46.064Z,-1.10
2022-12-09T22:44:18.967Z,-1.10
2022-12-09T22:46:47.790Z,-1.00
2022-12-09T22:49:18.061Z,-1.00
2022-12-09T22:51:46.753Z,-1.00
2022-12-09T22:54:16.458Z,-1.00
2022-12-09T22:56:45.676Z,-1.00
2022-12-09T22:59:14.812Z,-1.00
2022-12-09T23:01:46.086Z,-1.00
2022-12-09T23:04:16.058Z,-1.00
2022-12-09T23:06:45.048Z,-1.00
2022-12-09T23:09:16.484Z,-1.00
2022-12-09T23:11:45.140Z,-1.00
2022-12-09T23:14:13.997Z,-1.00
2022-12-09T23:16:44.471Z,-1.00
2022-12-09T23:19:14.463Z,-1.00
2022-12-09T23:21:44.424Z,-1.00
2022-12-09T23:24:18.419Z,-1.00
2022-12-09T23:26:51.745Z,-1.00
2022-12-09T23:29:21.459Z,-1.00
2022-12-09T23:31:51.317Z,-1.00
2022-12-09T23:34:20.087Z,-1.00
2022-12-09T23:36:48.572Z,-1.00
2022-12-09T23:39:19.859Z,-1.00
2022-12-09T23:41:49.281Z,-1.00
2022-12-09T23:44:19.734Z,-1.00
2022-12-09T23:46:48.562Z,-1.10
2022-12-09T23:49:18.672Z,-1.10
2022-12-09T23:51:48.113Z,-1.10
2022-12-09T23:54:18.635Z,-1.20
2022-12-09T23:56:50.118Z,-1.20
2022-12-09T23:59:22.167Z,-1.20
